createdAt,value
2022-08-26T00:01:44.797Z,11.18
2022-08-26T00:04:11.875Z,11.88
2022-08-26T00:06:38.537Z,11.73
2022-08-26T00:09:09.282Z,13.05
2022-08-26T00:11:35.888Z,14.68
2022-08-26T00:14:02.172Z,11.00
2022-08-26T00:16:29.297Z,12.60
2022-08-26T00:18:56.036Z,14.88
2022-08-26T00:21:22.373Z,12.10
2022-08-26T00:23:49.798Z,12.50
2022-08-26T00:26:16.191Z,11.77
2022-08-26T00:28:42.529Z,11.80
2022-08-26T00:31:11.119Z,14.00
2022-08-26T00:33:38.166Z,13.93
2022-08-26T00:36:05.485Z,11.65
2022-08-26T00:38:31.763Z,13.70
2022-08-26T00:40:58.584Z,9.93
2022-08-26T00:43:26.383Z,9.32
2022-08-26T00:45:57.583Z,10.20
2022-08-26T00:48:27.408Z,12.25
2022-08-26T00:51:00.669Z,11.13
2022-08-26T00:53:29.881Z,9.40
2022-08-26T00:56:05.813Z,8.95
2022-08-26T01:00:58.394Z,9.95
2022-08-26T01:03:25.785Z,13.27
2022-08-26T01:05:55.212Z,11.68
2022-08-26T01:08:22.914Z,10.05
2022-08-26T01:10:51.073Z,9.50
2022-08-26T01:13:21.152Z,9.82
2022-08-26T01:15:55.540Z,8.45
2022-08-26T01:18:22.185Z,8.98
2022-08-26T01:20:57.953Z,9.43
2022-08-26T01:23:28.797Z,7.97
2022-08-26T01:25:59.063Z,8.10
2022-08-26T01:28:28.147Z,8.02
2022-08-26T01:30:55.367Z,8.63
2022-08-26T01:33:26.192Z,8.38
2022-08-26T01:35:52.603Z,8.25
2022-08-26T01:38:19.314Z,8.68
2022-08-26T01:40:45.882Z,9.38
2022-08-26T01:43:17.360Z,6.15
2022-08-26T01:45:45.368Z,6.25
2022-08-26T01:48:14.086Z,5.95
2022-08-26T01:50:42.496Z,6.18
2022-08-26T01:53:11.137Z,9.68
2022-08-26T01:55:39.120Z,8.43
2022-08-26T01:58:09.687Z,8.68
2022-08-26T02:00:36.375Z,6.68
2022-08-26T02:03:18.026Z,6.78
2022-08-26T02:05:46.003Z,5.47
2022-08-26T02:08:17.477Z,6.38
2022-08-26T02:10:50.865Z,9.15
2022-08-26T02:13:21.388Z,6.25
2022-08-26T02:15:49.124Z,6.57
2022-08-26T02:18:16.020Z,6.43
2022-08-26T02:20:42.907Z,6.38
2022-08-26T02:23:09.478Z,6.07
2022-08-26T02:25:55.122Z,6.72
2022-08-26T02:28:21.628Z,5.78
2022-08-26T02:30:54.869Z,7.88
2022-08-26T02:33:22.027Z,5.13
2022-08-26T02:35:48.581Z,5.70
2022-08-26T02:38:14.997Z,6.30
2022-08-26T02:40:42.183Z,6.38
2022-08-26T02:43:08.807Z,5.20
2022-08-26T02:45:35.636Z,6.95
2022-08-26T02:48:09.079Z,6.78
2022-08-26T02:50:36.527Z,6.75
2022-08-26T02:53:02.969Z,5.57
2022-08-26T02:55:29.246Z,5.57
2022-08-26T02:57:55.837Z,6.03
2022-08-26T03:00:22.557Z,6.57
2022-08-26T03:02:50.314Z,6.50
2022-08-26T03:05:17.837Z,6.38
2022-08-26T03:07:44.144Z,3.55
2022-08-26T03:10:13.086Z,6.55
2022-08-26T03:12:40.841Z,5.50
2022-08-26T03:15:16.629Z,5.55
2022-08-26T03:17:44.412Z,4.30
2022-08-26T03:20:10.786Z,5.25
2022-08-26T03:22:39.999Z,5.28
2022-08-26T03:25:07.631Z,4.57
2022-08-26T03:27:34.390Z,5.72
2022-08-26T03:30:19.556Z,6.80
2022-08-26T03:32:46.319Z,4.70
2022-08-26T03:35:12.669Z,4.38
2022-08-26T03:37:39.412Z,6.07
2022-08-26T03:40:07.528Z,5.63
2022-08-26T03:42:35.018Z,5.50
2022-08-26T03:45:01.295Z,5.88
2022-08-26T03:47:27.571Z,4.63
2022-08-26T03:49:53.870Z,5.20
2022-08-26T03:52:20.141Z,6.88
2022-08-26T03:54:46.425Z,3.63
2022-08-26T03:57:13.481Z,6.00
2022-08-26T03:59:43.297Z,5.45
2022-08-26T04:02:11.584Z,3.70
2022-08-26T04:04:38.376Z,5.47
2022-08-26T04:07:05.054Z,4.65
2022-08-26T04:09:31.651Z,6.25
2022-08-26T04:12:02.215Z,5.18
2022-08-26T04:14:29.768Z,6.68
2022-08-26T04:16:56.403Z,5.88
2022-08-26T04:19:24.186Z,5.05
2022-08-26T04:21:53.065Z,4.03
2022-08-26T04:24:20.555Z,4.45
2022-08-26T04:26:46.941Z,3.90
2022-08-26T04:29:17.599Z,5.07
2022-08-26T04:31:44.237Z,5.00
2022-08-26T04:34:11.143Z,4.85
2022-08-26T04:36:37.844Z,3.30
2022-08-26T04:39:04.223Z,5.32
2022-08-26T04:41:31.443Z,4.40
2022-08-26T04:43:58.102Z,3.80
2022-08-26T04:46:25.422Z,4.10
2022-08-26T04:48:53.008Z,4.32
2022-08-26T04:51:20.374Z,4.32
2022-08-26T04:53:46.841Z,4.45
2022-08-26T04:56:13.760Z,4.57
2022-08-26T04:58:40.074Z,4.45
2022-08-26T05:01:08.250Z,4.32
2022-08-26T05:03:36.163Z,6.97
2022-08-26T05:06:05.588Z,6.47
2022-08-26T05:08:31.909Z,7.15
2022-08-26T05:10:58.350Z,8.82
2022-08-26T05:13:26.428Z,7.00
2022-08-26T05:15:52.743Z,5.78
2022-08-26T05:18:21.269Z,10.05
2022-08-26T05:20:50.148Z,7.05
2022-08-26T05:23:17.307Z,4.28
2022-08-26T05:25:45.235Z,7.57
2022-08-26T05:28:12.950Z,5.43
2022-08-26T05:30:40.287Z,5.80
2022-08-26T05:33:08.181Z,5.93
2022-08-26T05:35:35.239Z,5.90
2022-08-26T05:38:02.307Z,6.88
2022-08-26T05:40:33.698Z,5.40
2022-08-26T05:43:00.201Z,6.72
2022-08-26T05:45:28.661Z,4.38
2022-08-26T05:47:54.918Z,4.60
2022-08-26T05:50:25.770Z,6.80
2022-08-26T05:52:52.110Z,4.97
2022-08-26T05:55:18.778Z,5.45
2022-08-26T05:57:45.343Z,4.55
2022-08-26T06:00:12.572Z,6.00
2022-08-26T06:02:39.949Z,4.68
2022-08-26T06:05:07.567Z,4.85
2022-08-26T06:07:54.254Z,4.57
2022-08-26T06:10:32.151Z,5.05
2022-08-26T06:13:04.424Z,6.13
2022-08-26T06:15:38.701Z,5.45
2022-08-26T06:18:08.502Z,4.60
2022-08-26T06:20:36.575Z,4.32
2022-08-26T06:23:22.258Z,4.93
2022-08-26T06:28:19.328Z,4.70
2022-08-26T06:30:45.661Z,4.68
2022-08-26T06:33:11.970Z,3.33
2022-08-26T06:35:39.923Z,3.67
2022-08-26T06:38:08.608Z,4.68
2022-08-26T06:40:45.404Z,3.38
2022-08-26T06:43:12.513Z,3.97
2022-08-26T06:45:39.408Z,4.50
2022-08-26T06:48:07.241Z,4.68
2022-08-26T06:50:34.368Z,3.22
2022-08-26T06:53:01.815Z,4.15
2022-08-26T06:55:28.307Z,4.38
2022-08-26T06:57:54.766Z,4.30
2022-08-26T07:00:21.131Z,4.72
2022-08-26T07:02:47.547Z,3.97
2022-08-26T07:05:14.169Z,4.00
2022-08-26T07:07:40.471Z,3.97
2022-08-26T07:10:08.437Z,5.63
2022-08-26T07:12:35.946Z,3.67
2022-08-26T07:15:02.369Z,5.57
2022-08-26T07:17:29.119Z,3.70
2022-08-26T07:19:56.049Z,5.20
2022-08-26T07:22:22.367Z,5.05
2022-08-26T07:24:50.645Z,5.60
2022-08-26T07:27:17.396Z,4.80
2022-08-26T07:29:45.033Z,5.25
2022-08-26T07:32:13.221Z,6.57
2022-08-26T07:34:40.273Z,5.82
2022-08-26T07:37:09.024Z,3.38
2022-08-26T07:39:35.529Z,5.47
2022-08-26T07:42:07.587Z,5.97
2022-08-26T07:44:35.808Z,4.25
2022-08-26T07:47:02.222Z,4.13
2022-08-26T07:49:28.668Z,5.05
2022-08-26T07:51:55.432Z,4.40
2022-08-26T07:54:24.631Z,4.28
2022-08-26T07:56:53.541Z,4.78
2022-08-26T07:59:23.240Z,5.45
2022-08-26T08:01:49.822Z,5.47
2022-08-26T08:04:17.832Z,5.00
2022-08-26T08:06:44.620Z,5.15
2022-08-26T08:09:11.615Z,4.28
2022-08-26T08:11:37.872Z,3.75
2022-08-26T08:14:04.575Z,5.03
2022-08-26T08:16:35.743Z,4.22
2022-08-26T08:19:03.803Z,4.38
2022-08-26T08:21:30.302Z,6.05
2022-08-26T08:23:57.576Z,4.25
2022-08-26T08:26:24.716Z,3.47
2022-08-26T08:28:53.403Z,5.63
2022-08-26T08:36:42.824Z,6.20
2022-08-26T08:39:10.139Z,3.65
2022-08-26T08:41:56.735Z,5.03
2022-08-26T08:47:01.561Z,4.32
2022-08-26T08:49:29.290Z,4.53
2022-08-26T08:52:02.291Z,4.53
2022-08-26T08:54:31.149Z,4.50
2022-08-26T08:56:57.663Z,5.50
2022-08-26T08:59:27.781Z,6.15
2022-08-26T09:01:58.656Z,5.93
2022-08-26T09:04:48.949Z,4.18
2022-08-26T09:07:20.928Z,3.38
2022-08-26T09:10:01.465Z,5.88
2022-08-26T09:12:30.047Z,4.90
2022-08-26T09:15:00.632Z,2.83
2022-08-26T09:17:36.162Z,3.85
2022-08-26T09:20:08.316Z,4.18
2022-08-26T09:22:37.057Z,3.63
2022-08-26T09:25:05.323Z,6.43
2022-08-26T09:27:38.280Z,4.35
2022-08-26T09:30:05.044Z,7.10
2022-08-26T09:32:32.130Z,5.50
2022-08-26T09:34:58.963Z,4.60
2022-08-26T09:40:20.317Z,4.20
2022-08-26T09:42:46.875Z,4.65
2022-08-26T09:45:15.213Z,5.50
2022-08-26T09:47:46.381Z,3.08
2022-08-26T09:50:28.649Z,5.85
2022-08-26T09:53:14.440Z,4.03
2022-08-26T09:55:42.248Z,4.40
2022-08-26T09:58:12.404Z,6.03
2022-08-26T10:00:40.205Z,8.25
2022-08-26T10:03:09.569Z,6.15
2022-08-26T10:05:35.987Z,3.55
2022-08-26T10:08:15.672Z,6.45
2022-08-26T10:10:44.076Z,5.97
2022-08-26T10:13:34.927Z,5.18
2022-08-26T10:16:14.309Z,5.07
2022-08-26T10:18:43.518Z,3.92
2022-08-26T10:21:11.889Z,4.97
2022-08-26T10:26:16.450Z,5.30
2022-08-26T10:28:48.891Z,5.80
2022-08-26T10:31:40.270Z,5.10
2022-08-26T10:34:08.173Z,4.35
2022-08-26T10:37:13.442Z,5.93
2022-08-26T10:39:39.258Z,3.92
2022-08-26T10:42:16.601Z,4.03
2022-08-26T10:44:45.982Z,3.88
2022-08-26T10:47:20.696Z,4.75
2022-08-26T10:49:49.139Z,7.80
2022-08-26T10:52:22.321Z,7.60
2022-08-26T10:55:02.230Z,9.68
2022-08-26T10:57:47.874Z,7.22
2022-08-26T11:00:37.091Z,5.95
2022-08-26T11:03:22.482Z,6.75
2022-08-26T11:06:08.947Z,7.88
2022-08-26T11:08:35.279Z,8.90
2022-08-26T11:11:02.943Z,6.55
2022-08-26T11:14:01.581Z,5.68
2022-08-26T11:16:31.776Z,4.22
2022-08-26T11:18:58.121Z,5.78
2022-08-26T11:21:47.627Z,3.25
2022-08-26T11:24:32.711Z,4.43
2022-08-26T11:27:02.185Z,4.80
2022-08-26T11:29:49.014Z,6.10
2022-08-26T11:32:26.216Z,4.70
2022-08-26T11:34:58.360Z,4.93
2022-08-26T11:37:29.113Z,4.57
2022-08-26T11:39:59.052Z,2.83
2022-08-26T11:42:25.371Z,3.30
2022-08-26T11:44:56.204Z,4.30
2022-08-26T11:47:28.732Z,3.15
2022-08-26T11:50:10.975Z,4.07
2022-08-26T11:52:37.261Z,5.28
2022-08-26T11:55:03.515Z,3.28
2022-08-26T11:57:32.496Z,5.80
2022-08-26T11:59:59.698Z,6.50
2022-08-26T12:02:27.438Z,5.05
2022-08-26T12:04:54.560Z,5.40
2022-08-26T12:07:26.177Z,4.65
2022-08-26T12:09:57.358Z,5.05
2022-08-26T12:12:30.768Z,6.07
2022-08-26T12:15:09.036Z,4.38
2022-08-26T12:17:35.603Z,5.83
2022-08-26T12:20:06.228Z,9.63
2022-08-26T12:22:34.528Z,7.70
2022-08-26T12:25:08.852Z,8.82
2022-08-26T12:27:40.390Z,7.65
2022-08-26T12:30:14.067Z,6.40
2022-08-26T12:32:50.914Z,7.95
2022-08-26T12:35:24.738Z,8.07
2022-08-26T12:37:52.810Z,9.57
2022-08-26T12:40:25.293Z,7.18
2022-08-26T12:42:51.860Z,6.00
2022-08-26T12:45:37.626Z,6.60
2022-08-26T12:48:08.359Z,5.75
2022-08-26T12:50:36.396Z,6.65
2022-08-26T12:53:04.813Z,4.60
2022-08-26T12:55:44.754Z,6.80
2022-08-26T12:58:12.520Z,4.00
2022-08-26T13:00:40.858Z,8.10
2022-08-26T13:03:26.424Z,4.72
2022-08-26T13:05:52.755Z,5.63
2022-08-26T13:08:26.522Z,7.25
2022-08-26T13:11:04.715Z,4.80
2022-08-26T13:13:31.160Z,5.82
2022-08-26T13:15:57.560Z,5.93
2022-08-26T13:18:25.351Z,5.10
2022-08-26T13:20:51.766Z,4.65
2022-08-26T13:23:19.099Z,4.20
2022-08-26T13:25:45.399Z,3.40
2022-08-26T13:28:11.772Z,6.00
2022-08-26T13:30:38.553Z,4.45
2022-08-26T13:33:05.925Z,5.88
2022-08-26T13:35:32.767Z,3.63
2022-08-26T13:37:59.067Z,4.05
2022-08-26T13:40:26.137Z,7.28
2022-08-26T13:42:52.507Z,4.53
2022-08-26T13:45:18.841Z,5.45
2022-08-26T13:47:45.158Z,5.25
2022-08-26T13:50:11.485Z,5.38
2022-08-26T13:52:37.763Z,6.25
2022-08-26T13:55:04.267Z,5.13
2022-08-26T13:57:31.000Z,4.13
2022-08-26T13:59:59.194Z,5.38
2022-08-26T14:02:25.991Z,7.50
2022-08-26T14:04:53.670Z,5.47
2022-08-26T14:07:20.305Z,5.03
2022-08-26T14:09:46.602Z,5.07
2022-08-26T14:12:12.960Z,6.60
2022-08-26T14:14:39.287Z,3.67
2022-08-26T14:17:06.380Z,6.05
2022-08-26T14:19:32.694Z,6.07
2022-08-26T14:22:00.554Z,6.70
2022-08-26T14:24:27.323Z,5.80
2022-08-26T14:26:53.594Z,13.02
2022-08-26T14:29:20.074Z,7.13
2022-08-26T14:31:46.615Z,3.63
2022-08-26T14:34:13.782Z,5.78
2022-08-26T14:36:40.103Z,6.20
2022-08-26T14:39:08.413Z,4.68
2022-08-26T14:41:44.048Z,3.85
2022-08-26T14:44:13.087Z,4.65
2022-08-26T14:46:46.771Z,4.85
2022-08-26T14:49:13.449Z,4.70
2022-08-26T14:51:40.895Z,5.88
2022-08-26T14:54:15.008Z,5.32
2022-08-26T14:56:59.369Z,6.05
2022-08-26T14:59:30.215Z,4.68
2022-08-26T15:01:56.921Z,5.30
2022-08-26T15:04:23.989Z,4.70
2022-08-26T15:06:50.823Z,3.22
2022-08-26T15:09:18.414Z,5.43
2022-08-26T15:11:44.924Z,7.10
2022-08-26T15:14:18.999Z,3.72
2022-08-26T15:16:46.770Z,5.85
2022-08-26T15:19:15.187Z,5.47
2022-08-26T15:21:41.739Z,7.43
2022-08-26T15:24:08.107Z,5.78
2022-08-26T15:26:34.938Z,5.90
2022-08-26T15:29:04.886Z,4.93
2022-08-26T15:31:32.322Z,3.50
2022-08-26T15:33:59.583Z,5.43
2022-08-26T15:36:29.822Z,5.70
2022-08-26T15:38:56.635Z,5.30
2022-08-26T15:41:23.231Z,5.28
2022-08-26T15:43:49.940Z,5.15
2022-08-26T15:46:16.635Z,4.80
2022-08-26T15:48:43.008Z,4.05
2022-08-26T15:51:19.149Z,5.47
2022-08-26T15:53:45.476Z,6.50
2022-08-26T15:56:11.937Z,3.88
2022-08-26T15:58:38.417Z,3.22
2022-08-26T16:01:04.995Z,4.95
2022-08-26T16:03:31.282Z,4.40
2022-08-26T16:05:57.598Z,5.88
2022-08-26T16:08:23.953Z,4.60
2022-08-26T16:10:51.282Z,5.78
2022-08-26T16:13:18.783Z,5.68
2022-08-26T16:15:45.426Z,3.75
2022-08-26T16:18:13.284Z,3.90
2022-08-26T16:21:12.806Z,3.35
2022-08-26T16:23:33.798Z,4.00
2022-08-26T16:26:00.248Z,4.30
2022-08-26T16:28:26.631Z,5.13
2022-08-26T16:30:53.026Z,3.72
2022-08-26T16:33:29.199Z,4.22
2022-08-26T16:35:56.056Z,7.57
2022-08-26T16:38:22.370Z,4.03
2022-08-26T16:40:49.604Z,4.40
2022-08-26T16:43:15.977Z,5.07
2022-08-26T16:45:42.846Z,4.07
2022-08-26T16:48:09.952Z,5.07
2022-08-26T16:50:37.839Z,4.65
2022-08-26T16:53:04.603Z,4.60
2022-08-26T16:55:31.708Z,3.88
2022-08-26T16:57:58.166Z,4.10
2022-08-26T17:00:27.835Z,5.57
2022-08-26T17:02:54.957Z,4.43
2022-08-26T17:05:21.713Z,5.40
2022-08-26T17:07:47.999Z,3.33
2022-08-26T17:10:14.284Z,4.65
2022-08-26T17:12:40.611Z,2.83
2022-08-26T17:15:07.334Z,4.50
2022-08-26T17:17:34.303Z,3.40
2022-08-26T17:20:03.475Z,5.22
2022-08-26T17:22:34.110Z,4.60
2022-08-26T17:25:00.951Z,5.03
2022-08-26T17:27:27.222Z,4.57
2022-08-26T17:29:53.546Z,4.90
2022-08-26T17:32:19.840Z,4.90
2022-08-26T17:34:46.288Z,4.05
2022-08-26T17:37:12.695Z,2.83
2022-08-26T17:39:42.503Z,4.97
2022-08-26T17:42:09.366Z,5.60
2022-08-26T17:44:35.620Z,3.53
2022-08-26T17:47:01.902Z,4.00
2022-08-26T17:49:28.169Z,3.88
2022-08-26T17:51:56.920Z,4.22
2022-08-26T17:54:23.312Z,5.97
2022-08-26T17:56:49.698Z,5.57
2022-08-26T17:59:16.389Z,8.57
2022-08-26T18:01:43.193Z,10.65
2022-08-26T18:04:10.047Z,7.78
2022-08-26T18:06:36.821Z,9.65
2022-08-26T18:09:03.222Z,8.30
2022-08-26T18:11:30.045Z,7.53
2022-08-26T18:13:56.604Z,14.57
2022-08-26T18:16:23.270Z,9.55
2022-08-26T18:18:53.039Z,10.15
2022-08-26T18:21:23.995Z,6.78
2022-08-26T18:23:51.352Z,8.52
2022-08-26T18:26:25.277Z,7.38
2022-08-26T18:28:51.794Z,8.52
2022-08-26T18:31:18.314Z,8.75
2022-08-26T18:33:44.971Z,7.15
2022-08-26T18:36:18.659Z,9.43
2022-08-26T18:38:45.596Z,13.98
2022-08-26T18:41:12.829Z,9.30
2022-08-26T18:43:39.141Z,9.18
2022-08-26T18:46:06.682Z,14.88
2022-08-26T18:48:33.364Z,12.93
2022-08-26T18:50:59.970Z,14.00
2022-08-26T18:53:27.387Z,19.75
2022-08-26T18:55:53.809Z,14.80
2022-08-26T18:58:20.084Z,16.35
2022-08-26T19:00:46.453Z,20.15
2022-08-26T19:03:18.644Z,13.55
2022-08-26T19:05:45.781Z,10.52
2022-08-26T19:08:12.083Z,12.02
2022-08-26T19:10:38.963Z,13.15
2022-08-26T19:13:06.441Z,10.77
2022-08-26T19:15:37.143Z,8.63
2022-08-26T19:18:03.530Z,10.73
2022-08-26T19:20:29.853Z,10.60
2022-08-26T19:22:59.671Z,10.98
2022-08-26T19:25:28.924Z,10.90
2022-08-26T19:27:55.203Z,6.82
2022-08-26T19:30:21.503Z,7.60
2022-08-26T19:32:47.802Z,11.52
2022-08-26T19:35:14.858Z,10.73
2022-08-26T19:37:41.126Z,9.40
2022-08-26T19:40:07.678Z,10.27
2022-08-26T19:42:34.241Z,9.27
2022-08-26T19:45:24.473Z,7.05
2022-08-26T19:47:52.889Z,7.13
2022-08-26T19:50:19.536Z,5.97
2022-08-26T19:52:45.858Z,7.30
2022-08-26T19:55:12.949Z,10.68
2022-08-26T19:57:40.082Z,6.13
2022-08-26T20:00:11.513Z,9.20
2022-08-26T20:02:38.315Z,6.15
2022-08-26T20:05:07.771Z,5.95
2022-08-26T20:07:34.332Z,6.95
2022-08-26T20:10:01.197Z,6.68
2022-08-26T20:12:27.761Z,9.02
2022-08-26T20:14:54.700Z,7.13
2022-08-26T20:17:21.334Z,5.85
2022-08-26T20:20:06.459Z,4.78
2022-08-26T20:22:52.761Z,4.43
2022-08-26T20:25:19.956Z,6.35
2022-08-26T20:27:46.939Z,4.57
2022-08-26T20:30:14.976Z,8.10
2022-08-26T20:32:41.732Z,7.13
2022-08-26T20:35:09.299Z,4.22
2022-08-26T20:37:35.638Z,8.15
2022-08-26T20:40:02.092Z,4.13
2022-08-26T20:42:28.693Z,4.13
2022-08-26T20:44:55.196Z,4.78
2022-08-26T20:47:21.554Z,5.57
2022-08-26T20:49:47.809Z,7.22
2022-08-26T20:52:18.701Z,4.18
2022-08-26T20:54:45.093Z,4.30
2022-08-26T20:57:11.385Z,6.60
2022-08-26T20:59:37.661Z,5.10
2022-08-26T21:02:04.034Z,4.68
2022-08-26T21:04:30.339Z,5.78
2022-08-26T21:06:56.627Z,3.63
2022-08-26T21:09:23.725Z,4.25
2022-08-26T21:11:50.659Z,3.22
2022-08-26T21:14:17.489Z,4.05
2022-08-26T21:16:44.924Z,4.75
2022-08-26T21:19:12.415Z,3.30
2022-08-26T21:21:38.798Z,3.47
2022-08-26T21:24:05.311Z,3.88
2022-08-26T21:26:31.799Z,3.97
2022-08-26T21:28:58.104Z,5.47
2022-08-26T21:31:24.994Z,5.63
2022-08-26T21:33:51.680Z,6.35
2022-08-26T21:36:18.948Z,4.70
2022-08-26T21:38:45.246Z,4.45
2022-08-26T21:41:19.185Z,4.63
2022-08-26T21:43:46.163Z,6.80
2022-08-26T21:46:16.707Z,6.07
2022-08-26T21:48:48.740Z,6.55
2022-08-26T21:51:17.458Z,4.20
2022-08-26T21:53:44.023Z,3.80
2022-08-26T21:56:12.900Z,4.93
2022-08-26T21:58:39.293Z,4.88
2022-08-26T22:01:10.207Z,3.95
2022-08-26T22:03:46.648Z,2.63
2022-08-26T22:06:13.465Z,3.72
2022-08-26T22:08:39.801Z,4.40
2022-08-26T22:11:06.409Z,2.95
2022-08-26T22:13:34.268Z,3.22
2022-08-26T22:16:00.725Z,4.72
2022-08-26T22:18:28.331Z,6.88
2022-08-26T22:20:55.506Z,7.55
2022-08-26T22:23:23.617Z,2.92
2022-08-26T22:25:50.141Z,3.67
2022-08-26T22:28:17.227Z,5.32
2022-08-26T22:30:44.219Z,4.35
2022-08-26T22:33:11.072Z,5.78
2022-08-26T22:35:41.184Z,4.72
2022-08-26T22:38:07.959Z,3.65
2022-08-26T22:40:35.141Z,6.25
2022-08-26T22:43:02.166Z,3.33
2022-08-26T22:45:31.242Z,4.30
2022-08-26T22:47:58.596Z,4.32
2022-08-26T22:50:25.312Z,4.68
2022-08-26T22:52:51.647Z,4.72
2022-08-26T22:55:18.019Z,4.30
2022-08-26T22:57:44.473Z,7.40
2022-08-26T23:00:13.444Z,5.53
2022-08-26T23:02:40.315Z,4.65
2022-08-26T23:05:07.186Z,3.47
2022-08-26T23:07:33.853Z,4.03
2022-08-26T23:10:00.485Z,4.10
2022-08-26T23:12:27.598Z,2.88
2022-08-26T23:14:53.858Z,3.40
2022-08-26T23:17:21.373Z,3.50
2022-08-26T23:19:47.648Z,3.22
2022-08-26T23:22:14.155Z,5.82
2022-08-26T23:24:40.468Z,3.30
2022-08-26T23:27:06.733Z,5.20
2022-08-26T23:29:33.169Z,5.20
2022-08-26T23:32:00.224Z,5.53
2022-08-26T23:34:45.147Z,3.92
2022-08-26T23:37:12.716Z,1.75
2022-08-26T23:39:38.995Z,4.13
2022-08-26T23:42:06.454Z,3.53
2022-08-26T23:44:32.830Z,3.22
2022-08-26T23:46:59.204Z,4.93
2022-08-26T23:49:25.856Z,3.40
2022-08-26T23:52:11.349Z,5.35
2022-08-26T23:54:38.479Z,3.17
2022-08-26T23:57:05.731Z,3.40
2022-08-26T23:59:32.332Z,3.72
